Arlington, TX (76005)

12:31 PM CDT on July 29, 2016 (GMT -0500)
North Arlington | | Change Station

Elev 597 ft 32.77 °N, 97.08 °W | Updated 5 seconds ago

Clear
Clear
89.2 °F
Feels Like 100 °F
N
7.5
Wind Variable Wind from NNE
Gusts 7.5 mph

Today
High -- | Low -- °F
--% Chance of Precip.
Yesterday
High -- | Low -- °F
Precip. -- in
Pressure 30.05 in
Visibility 10.0 miles
Clouds Clear
Heat Index 100 °F
Dew Point 76 °F
Humidity 64%
Rainfall 0.00 in
Snow Depth Not available.
6:40 AM 8:28 PM
Waning Crescent, 20% visible
METAR KGPM 291650Z 23009KT 10SM SKC 31/21 A3005
Pressure 30.05 in
Visibility 10.0 miles
Clouds Clear
Heat Index 100 °F
Dew Point 76 °F
Humidity 64%
Rainfall 0.00 in
Snow Depth Not available.
6:40 AM 8:28 PM
Waning Crescent, 20% visible
METAR KGPM 291650Z 23009KT 10SM SKC 31/21 A3005

10-Day Weather Forecast

Almanac

Astronomy

Jul. 29, 2016 Rise Set
Actual Time
Civil Twilight
Nautical Twilight
Astronomical Twilight
Moon
Length of Visible Light
Length of Day
Tomorrow will be .
, % of the Moon is Illuminated

Today's Extremes

State Highs State Lows

Community

WunderPhotos

Upload Photos

1,928,382 photos uploaded!

WunderBlog® & News

Nearby

Air Quality

  Air Quality AQ Index Pollutant
Not available.

Snow Depth

Station Depth Elevation

Earthquake Activity

City Distance Mag. Time & Date
Minimum magnitude displayed is 2.5.

Coastal Water Temperatures

Place Temperature

Stations

Nearby Weather Stations

Station Location Temp. Windchill Dew Point Humidity Wind Precip. Elev Updated Type
                   

Watches & Warnings

There are currently no watches in effect.